Terminal Aerodrome Forecast
Issued by NWS Memphis, TN

Home | Current Version | Previous Version | Text Only | Print | Product List | Glossary On
Versions: 1 2 3 4 5 6 7 8 9 10 11 12 13
000
FTUS44 KMEG 231124
TAFJBR
TAF
KJBR 231124Z 2312/2412 06006KT P6SM BKN090 OVC120
     FM231400 13008KT P6SM BKN080 BKN120
     FM240000 11005KT P6SM SCT050
     FM240900 13007KT P6SM VCSH BKN050 OVC200=

USA.gov is the U.S. government's official web portal to all federal, state and local government web resources and services.